createdAt,value
2018-12-10T00:00:41.509Z,99.90
2018-12-10T00:03:17.939Z,99.90
2018-12-10T00:05:48.916Z,99.90
2018-12-10T00:08:18.301Z,99.90
2018-12-10T00:10:47.419Z,99.90
2018-12-10T00:13:17.246Z,99.90
2018-12-10T00:15:46.309Z,99.90
2018-12-10T00:18:15.498Z,99.90
2018-12-10T00:20:44.598Z,99.90
2018-12-10T00:23:13.726Z,99.90
2018-12-10T00:25:42.807Z,99.90
2018-12-10T00:28:11.940Z,99.90
2018-12-10T00:30:40.983Z,99.90
2018-12-10T00:33:10.106Z,99.90
2018-12-10T00:35:39.329Z,99.90
2018-12-10T00:38:08.391Z,99.90
2018-12-10T00:40:37.401Z,99.90
2018-12-10T00:43:06.498Z,99.90
2018-12-10T00:45:35.560Z,99.90
2018-12-10T00:48:04.869Z,99.90
2018-12-10T00:50:33.984Z,99.90
2018-12-10T00:53:03.209Z,99.90
2018-12-10T00:55:32.313Z,99.90
2018-12-10T00:58:01.417Z,99.90
2018-12-10T01:00:30.442Z,99.90
2018-12-10T01:02:59.693Z,99.90
2018-12-10T01:05:28.682Z,99.90
2018-12-10T01:07:57.701Z,99.90
2018-12-10T01:10:26.789Z,99.90
2018-12-10T01:12:55.849Z,99.90
2018-12-10T01:15:24.840Z,99.90
2018-12-10T01:17:53.887Z,99.90
2018-12-10T01:20:23.037Z,99.90
2018-12-10T01:22:52.178Z,99.90
2018-12-10T01:25:21.342Z,99.90
2018-12-10T01:27:50.415Z,99.90
2018-12-10T01:30:19.421Z,99.90
2018-12-10T01:32:48.482Z,99.90
2018-12-10T01:35:17.554Z,99.90
2018-12-10T01:37:46.566Z,99.90
2018-12-10T01:40:15.716Z,99.90
2018-12-10T01:42:44.723Z,99.90
2018-12-10T01:45:13.712Z,99.90
2018-12-10T01:47:42.772Z,99.90
2018-12-10T01:50:11.822Z,99.90
2018-12-10T01:52:40.893Z,99.90
2018-12-10T01:55:10.038Z,99.90
2018-12-10T01:57:39.108Z,99.90
2018-12-10T02:00:08.594Z,99.90
2018-12-10T02:02:38.389Z,99.90
2018-12-10T02:05:07.400Z,99.90
2018-12-10T02:07:36.542Z,99.90
2018-12-10T02:10:06.801Z,99.90
2018-12-10T02:12:35.948Z,99.90
2018-12-10T02:15:05.711Z,99.90
2018-12-10T02:17:34.763Z,99.90
2018-12-10T02:20:03.893Z,99.90
2018-12-10T02:22:32.879Z,99.90
2018-12-10T02:25:02.438Z,99.90
2018-12-10T02:27:31.498Z,99.90
2018-12-10T02:30:00.604Z,99.90
2018-12-10T02:32:29.846Z,99.90
2018-12-10T02:34:59.008Z,99.90
2018-12-10T02:37:28.000Z,99.90
2018-12-10T02:39:57.018Z,99.90
2018-12-10T02:42:26.057Z,99.90
2018-12-10T02:44:55.139Z,99.90
2018-12-10T02:47:24.270Z,99.90
2018-12-10T02:49:53.365Z,99.90
2018-12-10T02:52:22.422Z,99.90
2018-12-10T02:54:51.497Z,99.90
2018-12-10T02:57:20.607Z,99.90
2018-12-10T02:59:49.617Z,99.90
2018-12-10T03:02:18.735Z,99.90
2018-12-10T03:04:47.833Z,99.90
2018-12-10T03:07:16.921Z,99.90
2018-12-10T03:09:45.983Z,99.90
2018-12-10T03:12:15.017Z,99.90
2018-12-10T03:14:44.119Z,99.90
2018-12-10T03:17:13.240Z,99.90
2018-12-10T03:19:42.312Z,99.90
2018-12-10T03:22:11.426Z,99.90
2018-12-10T03:24:40.520Z,99.90
2018-12-10T03:27:09.731Z,99.90
2018-12-10T03:29:38.872Z,99.90
2018-12-10T03:32:08.059Z,99.90
2018-12-10T03:34:37.157Z,99.90
2018-12-10T03:37:06.263Z,99.90
2018-12-10T03:39:35.371Z,99.90
2018-12-10T03:42:04.427Z,99.90
2018-12-10T03:44:33.601Z,99.90
2018-12-10T03:47:02.644Z,99.90
2018-12-10T03:49:31.673Z,99.90
2018-12-10T03:52:00.707Z,99.90
2018-12-10T03:54:29.770Z,99.90
2018-12-10T03:56:58.877Z,99.90
2018-12-10T03:59:27.933Z,99.90
2018-12-10T04:01:57.159Z,99.90
2018-12-10T04:04:26.163Z,99.90
2018-12-10T04:06:55.198Z,99.90
2018-12-10T04:09:24.217Z,99.90
2018-12-10T04:11:53.225Z,99.90
2018-12-10T04:14:22.292Z,99.90
2018-12-10T04:16:51.371Z,99.90
2018-12-10T04:19:20.570Z,99.90
2018-12-10T04:21:49.672Z,99.90
2018-12-10T04:24:18.785Z,99.90
2018-12-10T04:26:47.901Z,99.90
2018-12-10T04:29:16.999Z,99.90
2018-12-10T04:31:46.262Z,99.90
2018-12-10T04:34:15.337Z,99.90
2018-12-10T04:36:44.454Z,99.90
2018-12-10T04:39:13.702Z,99.90
2018-12-10T04:41:42.761Z,99.90
2018-12-10T04:44:11.824Z,99.90
2018-12-10T04:46:41.036Z,99.90
2018-12-10T04:49:10.144Z,99.90
2018-12-10T04:51:39.154Z,99.90
2018-12-10T04:54:08.290Z,99.90
2018-12-10T04:56:37.362Z,99.90
2018-12-10T04:59:06.427Z,99.90
2018-12-10T05:01:35.493Z,99.90
2018-12-10T05:04:04.537Z,99.90
2018-12-10T05:06:33.531Z,99.90
2018-12-10T05:09:02.796Z,99.90
2018-12-10T05:11:33.769Z,99.90
2018-12-10T05:14:02.785Z,99.90
2018-12-10T05:16:31.857Z,99.90
2018-12-10T05:19:00.967Z,99.90
2018-12-10T05:21:30.130Z,99.90
2018-12-10T05:23:59.294Z,99.90
2018-12-10T05:26:28.462Z,99.90
2018-12-10T05:28:58.225Z,99.90
2018-12-10T05:31:27.294Z,99.90
2018-12-10T05:33:56.287Z,99.90
2018-12-10T05:36:25.311Z,99.90
2018-12-10T05:38:54.953Z,99.90
2018-12-10T05:41:24.046Z,99.90
2018-12-10T05:43:53.081Z,99.90
2018-12-10T05:46:22.146Z,99.90
2018-12-10T05:48:51.169Z,99.90
2018-12-10T05:51:21.029Z,99.90
2018-12-10T05:53:50.054Z,99.90
2018-12-10T05:56:19.093Z,99.90
2018-12-10T05:58:48.209Z,99.90
2018-12-10T06:01:17.317Z,99.90
2018-12-10T06:03:46.357Z,99.90
2018-12-10T06:06:15.539Z,99.80
2018-12-10T06:08:44.574Z,99.60
2018-12-10T06:11:13.640Z,99.60
2018-12-10T06:13:42.638Z,99.40
2018-12-10T06:16:11.728Z,99.60
2018-12-10T06:18:40.770Z,99.90
2018-12-10T06:21:09.846Z,99.60
2018-12-10T06:23:38.901Z,99.70
2018-12-10T06:26:08.029Z,99.80
2018-12-10T06:28:37.215Z,99.90
2018-12-10T06:31:06.320Z,99.90
2018-12-10T06:33:35.345Z,99.90
2018-12-10T06:36:04.449Z,99.90
2018-12-10T06:38:33.540Z,99.90
2018-12-10T06:41:02.750Z,99.90
2018-12-10T06:43:31.861Z,99.90
2018-12-10T06:46:00.927Z,99.90
2018-12-10T06:48:29.948Z,99.90
2018-12-10T06:50:59.037Z,99.90
2018-12-10T06:53:28.193Z,99.90
2018-12-10T06:55:57.220Z,99.90
2018-12-10T06:58:26.309Z,99.90
2018-12-10T07:00:55.454Z,99.90
2018-12-10T07:03:24.460Z,99.80
2018-12-10T07:05:53.515Z,99.90
2018-12-10T07:08:22.870Z,99.40
2018-12-10T07:10:51.869Z,99.40
2018-12-10T07:13:20.853Z,99.70
2018-12-10T07:15:50.008Z,99.50
2018-12-10T07:18:19.325Z,99.60
2018-12-10T07:20:49.837Z,98.70
2018-12-10T07:23:18.938Z,98.30
2018-12-10T07:25:47.933Z,98.40
2018-12-10T07:28:16.918Z,98.40
2018-12-10T07:30:45.992Z,98.60
2018-12-10T07:33:15.114Z,98.20
2018-12-10T07:35:44.213Z,98.40
2018-12-10T07:38:14.460Z,98.70
2018-12-10T07:40:43.563Z,98.60
2018-12-10T07:43:12.659Z,98.70
2018-12-10T07:45:41.795Z,98.90
2018-12-10T07:48:10.816Z,98.50
2018-12-10T07:50:39.810Z,98.80
2018-12-10T07:53:08.913Z,98.90
2018-12-10T07:55:38.050Z,99.10
2018-12-10T07:58:07.142Z,98.90
2018-12-10T08:00:36.303Z,99.10
2018-12-10T08:03:05.436Z,99.20
2018-12-10T08:05:34.429Z,99.10
2018-12-10T08:08:03.503Z,99.30
2018-12-10T08:10:32.577Z,99.40
2018-12-10T08:13:01.846Z,99.30
2018-12-10T08:15:30.926Z,98.90
2018-12-10T08:18:00.015Z,98.70
2018-12-10T08:20:29.041Z,98.90
2018-12-10T08:22:58.218Z,99.20
2018-12-10T08:25:27.329Z,99.10
2018-12-10T08:27:56.582Z,99.40
2018-12-10T08:30:25.677Z,99.30
2018-12-10T08:32:54.680Z,99.40
2018-12-10T08:35:23.688Z,99.40
2018-12-10T08:37:52.915Z,99.40
2018-12-10T08:40:22.059Z,99.70
2018-12-10T08:42:51.385Z,99.80
2018-12-10T08:45:20.561Z,99.70
2018-12-10T08:47:49.961Z,99.80
2018-12-10T08:50:18.982Z,99.80
2018-12-10T08:52:52.861Z,99.90
2018-12-10T08:55:22.006Z,99.90
2018-12-10T08:57:51.239Z,99.90
2018-12-10T09:00:35.451Z,99.90
2018-12-10T09:03:04.699Z,99.90
2018-12-10T09:05:33.830Z,99.90
2018-12-10T09:08:03.082Z,99.60
2018-12-10T09:10:32.159Z,99.60
2018-12-10T09:13:01.200Z,99.50
2018-12-10T09:15:30.221Z,99.90
2018-12-10T09:17:59.224Z,99.30
2018-12-10T09:20:28.309Z,99.10
2018-12-10T09:22:57.371Z,98.90
2018-12-10T09:25:26.440Z,98.50
2018-12-10T09:27:55.537Z,98.70
2018-12-10T09:30:28.033Z,98.60
2018-12-10T09:32:58.886Z,98.40
2018-12-10T09:35:28.562Z,98.70
2018-12-10T09:37:57.789Z,98.10
2018-12-10T09:40:26.793Z,98.80
2018-12-10T09:42:55.803Z,98.30
2018-12-10T09:45:24.852Z,98.10
2018-12-10T09:47:53.994Z,98.20
2018-12-10T09:50:23.211Z,98.10
2018-12-10T09:52:52.221Z,97.80
2018-12-10T09:55:22.385Z,97.70
2018-12-10T09:57:51.551Z,97.80
2018-12-10T10:00:20.701Z,97.70
2018-12-10T10:02:51.607Z,97.60
2018-12-10T10:05:20.876Z,97.50
2018-12-10T10:07:50.001Z,97.70
2018-12-10T10:10:19.119Z,98.10
2018-12-10T10:12:48.193Z,97.80
2018-12-10T10:15:17.240Z,98.00
2018-12-10T10:17:46.237Z,97.60
2018-12-10T10:20:15.256Z,97.10
2018-12-10T10:22:44.912Z,97.50
2018-12-10T10:25:13.992Z,97.20
2018-12-10T10:27:43.178Z,97.00
2018-12-10T10:30:12.200Z,97.20
2018-12-10T10:32:42.576Z,97.10
2018-12-10T10:35:11.693Z,97.20
2018-12-10T10:37:40.858Z,97.10
2018-12-10T10:40:09.876Z,96.80
2018-12-10T10:42:38.956Z,96.90
2018-12-10T10:45:07.937Z,97.00
2018-12-10T10:47:38.147Z,97.00
2018-12-10T10:57:23.468Z,96.70
2018-12-10T11:09:37.069Z,96.80
2018-12-10T11:21:50.701Z,96.50
2018-12-10T11:31:37.370Z,97.00
2018-12-10T11:41:22.677Z,96.50
2018-12-10T11:43:51.305Z,96.40
2018-12-10T11:57:39.465Z,96.40
2018-12-10T12:00:12.612Z,96.30
2018-12-10T12:02:41.846Z,96.30
2018-12-10T12:05:15.173Z,96.60
2018-12-10T12:07:44.316Z,96.20
2018-12-10T12:10:13.364Z,96.30
2018-12-10T12:12:42.512Z,96.30
2018-12-10T12:15:11.588Z,96.00
2018-12-10T12:17:40.600Z,96.10
2018-12-10T12:20:10.424Z,95.90
2018-12-10T12:22:40.723Z,96.00
2018-12-10T12:25:09.761Z,96.20
2018-12-10T12:27:39.106Z,95.80
2018-12-10T12:30:09.128Z,95.40
2018-12-10T12:32:38.793Z,95.30
2018-12-10T12:35:07.793Z,95.20
2018-12-10T12:37:36.862Z,95.00
2018-12-10T12:40:06.026Z,94.90
2018-12-10T12:42:35.034Z,95.00
2018-12-10T12:45:04.315Z,94.80
2018-12-10T12:47:33.446Z,95.30
2018-12-10T12:50:02.569Z,95.10
2018-12-10T12:52:31.741Z,95.20
2018-12-10T12:55:00.954Z,95.60
2018-12-10T12:57:30.085Z,95.30
2018-12-10T12:59:59.121Z,95.60
2018-12-10T13:02:28.405Z,95.40
2018-12-10T13:04:57.402Z,95.30
2018-12-10T13:07:26.481Z,95.40
2018-12-10T13:09:55.517Z,95.40
2018-12-10T13:12:24.626Z,95.20
2018-12-10T13:14:53.777Z,95.00
2018-12-10T13:17:23.149Z,95.40
2018-12-10T13:19:52.341Z,95.20
2018-12-10T13:22:21.507Z,95.40
2018-12-10T13:24:50.503Z,95.60
2018-12-10T13:27:19.571Z,95.50
2018-12-10T13:29:48.702Z,95.20
2018-12-10T13:32:17.787Z,95.50
2018-12-10T13:34:46.896Z,95.00
2018-12-10T13:37:15.966Z,95.40
2018-12-10T13:39:44.968Z,95.50
2018-12-10T13:42:14.100Z,95.70
2018-12-10T13:44:43.112Z,95.10
2018-12-10T13:47:12.120Z,95.30
2018-12-10T13:49:41.268Z,95.60
2018-12-10T13:52:10.285Z,95.40
2018-12-10T13:54:39.371Z,95.50
2018-12-10T13:57:08.436Z,96.00
2018-12-10T13:59:37.853Z,95.80
2018-12-10T14:02:06.850Z,96.00
2018-12-10T14:04:43.286Z,96.10
2018-12-10T14:07:12.490Z,95.90
2018-12-10T14:09:41.869Z,95.60
2018-12-10T14:12:11.045Z,95.50
2018-12-10T14:14:40.225Z,95.30
2018-12-10T14:17:09.305Z,95.30
2018-12-10T14:19:38.365Z,95.30
2018-12-10T14:22:07.574Z,95.10
2018-12-10T14:24:36.702Z,94.40
2018-12-10T14:27:05.757Z,94.80
2018-12-10T14:29:34.829Z,94.50
2018-12-10T14:32:03.949Z,94.60
2018-12-10T14:34:33.130Z,94.40
2018-12-10T14:37:02.220Z,94.40
2018-12-10T14:39:31.365Z,94.10
2018-12-10T14:42:00.674Z,94.50
2018-12-10T14:44:29.661Z,94.30
2018-12-10T14:46:58.652Z,94.50
2018-12-10T14:49:27.851Z,94.40
2018-12-10T14:51:56.994Z,94.00
2018-12-10T14:54:26.028Z,94.20
2018-12-10T14:56:55.052Z,94.60
2018-12-10T14:59:24.041Z,94.40
2018-12-10T15:01:53.020Z,94.60
2018-12-10T15:04:22.170Z,94.10
2018-12-10T15:06:51.186Z,94.20
2018-12-10T15:09:20.223Z,93.90
2018-12-10T15:11:49.518Z,94.20
2018-12-10T15:14:18.533Z,93.90
2018-12-10T15:16:47.505Z,94.00
2018-12-10T15:19:16.558Z,94.10
2018-12-10T15:21:45.726Z,94.30
2018-12-10T15:24:14.786Z,94.60
2018-12-10T15:26:43.885Z,94.30
2018-12-10T15:29:12.952Z,94.50
2018-12-10T15:31:42.051Z,94.10
2018-12-10T15:34:11.069Z,94.10
2018-12-10T15:36:40.082Z,93.70
2018-12-10T15:39:09.221Z,93.70
2018-12-10T15:41:38.288Z,94.10
2018-12-10T15:44:07.424Z,93.80
2018-12-10T15:46:36.404Z,93.80
2018-12-10T15:49:05.581Z,93.80
2018-12-10T15:51:34.711Z,94.20
2018-12-10T15:54:03.708Z,94.40
2018-12-10T15:56:32.741Z,94.50
2018-12-10T15:59:01.730Z,94.50
2018-12-10T16:01:30.743Z,94.80
2018-12-10T16:03:59.793Z,95.00
2018-12-10T16:06:28.874Z,94.90
2018-12-10T16:08:57.913Z,94.70
2018-12-10T16:11:27.589Z,94.70
2018-12-10T16:13:56.694Z,94.60
2018-12-10T16:16:25.733Z,94.90
2018-12-10T16:18:54.993Z,94.80
2018-12-10T16:21:24.122Z,95.10
2018-12-10T16:23:53.177Z,95.30
2018-12-10T16:26:22.266Z,95.50
2018-12-10T16:28:51.349Z,95.40
2018-12-10T16:31:20.344Z,95.60
2018-12-10T16:33:49.485Z,95.70
2018-12-10T16:36:18.653Z,95.90
2018-12-10T16:38:49.162Z,95.80
2018-12-10T16:41:18.237Z,95.70
2018-12-10T16:43:47.293Z,95.40
2018-12-10T16:46:16.289Z,95.70
2018-12-10T16:48:45.390Z,95.70
2018-12-10T16:51:14.562Z,95.60
2018-12-10T16:53:43.649Z,95.60
2018-12-10T16:56:12.757Z,95.80
2018-12-10T17:05:59.853Z,96.00
2018-12-10T17:15:46.493Z,96.40
2018-12-10T17:18:15.049Z,96.50
2018-12-10T17:20:44.041Z,96.80
2018-12-10T17:23:13.065Z,96.90
2018-12-10T17:25:42.057Z,96.90
2018-12-10T17:28:11.067Z,96.90
2018-12-10T17:30:40.170Z,97.20
2018-12-10T17:33:09.213Z,97.20
2018-12-10T17:35:38.921Z,97.30
2018-12-10T17:38:08.290Z,97.30
2018-12-10T17:40:37.349Z,97.30
2018-12-10T17:43:06.428Z,97.40
2018-12-10T17:45:37.290Z,97.40
2018-12-10T17:48:07.147Z,97.40
2018-12-10T17:50:36.178Z,97.70
2018-12-10T17:53:05.257Z,97.70
2018-12-10T17:55:34.406Z,97.70
2018-12-10T17:58:03.396Z,97.60
2018-12-10T18:00:32.447Z,97.50
2018-12-10T18:03:01.655Z,97.40
2018-12-10T18:05:30.891Z,97.50
2018-12-10T18:07:59.915Z,97.30
2018-12-10T18:10:28.921Z,97.30
2018-12-10T18:12:57.996Z,97.20
2018-12-10T18:15:27.297Z,97.30
2018-12-10T18:17:56.388Z,97.20
2018-12-10T18:20:25.401Z,97.20
2018-12-10T18:22:54.579Z,97.00
2018-12-10T18:25:23.646Z,97.10
2018-12-10T18:27:53.055Z,97.00
2018-12-10T18:30:22.132Z,96.90
2018-12-10T18:32:51.314Z,96.90
2018-12-10T18:35:20.401Z,96.70
2018-12-10T18:37:49.953Z,96.60
2018-12-10T18:40:19.118Z,96.50
2018-12-10T18:42:48.210Z,96.50
2018-12-10T18:45:18.305Z,96.50
2018-12-10T18:47:47.296Z,96.50
2018-12-10T18:50:16.307Z,96.50
2018-12-10T18:52:45.353Z,96.50
2018-12-10T18:55:14.459Z,96.40
2018-12-10T18:57:43.481Z,96.30
2018-12-10T19:00:14.069Z,96.20
2018-12-10T19:02:43.776Z,96.30
2018-12-10T19:05:12.900Z,96.30
2018-12-10T19:07:41.965Z,96.40
2018-12-10T19:10:11.016Z,96.20
2018-12-10T19:12:41.445Z,96.40
2018-12-10T19:15:10.703Z,96.40
2018-12-10T19:17:40.256Z,96.40
2018-12-10T19:20:13.626Z,96.70
2018-12-10T19:22:40.470Z,96.80
2018-12-10T19:25:09.508Z,96.60
2018-12-10T19:27:38.815Z,96.80
2018-12-10T19:30:07.887Z,96.60
2018-12-10T19:32:37.037Z,96.60
2018-12-10T19:35:06.065Z,96.30
2018-12-10T19:37:35.290Z,96.40
2018-12-10T19:40:04.649Z,96.10
2018-12-10T19:42:33.801Z,96.30
2018-12-10T19:45:02.957Z,96.20
2018-12-10T19:47:33.027Z,96.00
2018-12-10T19:50:02.103Z,96.10
2018-12-10T19:52:31.157Z,96.10
2018-12-10T19:55:00.254Z,96.20
2018-12-10T19:57:29.476Z,96.20
2018-12-10T19:59:58.468Z,96.40
2018-12-10T20:02:27.671Z,96.00
2018-12-10T20:04:56.850Z,95.80
2018-12-10T20:07:25.953Z,95.80
2018-12-10T20:09:55.038Z,96.00
2018-12-10T20:12:24.103Z,96.00
2018-12-10T20:14:53.162Z,96.10
2018-12-10T20:17:22.285Z,96.00
2018-12-10T20:19:51.385Z,96.10
2018-12-10T20:22:20.378Z,96.10
2018-12-10T20:24:49.548Z,96.10
2018-12-10T20:27:19.503Z,96.20
2018-12-10T20:29:48.709Z,96.30
2018-12-10T20:32:17.846Z,96.20
2018-12-10T20:34:46.923Z,96.20
2018-12-10T20:37:17.088Z,96.40
2018-12-10T20:39:46.069Z,96.90
2018-12-10T20:42:15.142Z,96.60
2018-12-10T20:44:44.281Z,96.70
2018-12-10T20:47:14.394Z,96.80
2018-12-10T20:49:43.412Z,96.90
2018-12-10T20:52:12.609Z,96.90
2018-12-10T20:54:41.747Z,97.30
2018-12-10T20:57:10.857Z,96.90
2018-12-10T20:59:40.022Z,97.00
2018-12-10T21:02:09.127Z,97.00
2018-12-10T21:04:38.123Z,97.20
2018-12-10T21:07:07.200Z,97.30
2018-12-10T21:09:36.210Z,97.50
2018-12-10T21:12:05.378Z,97.30
2018-12-10T21:14:34.408Z,97.20
2018-12-10T21:17:03.821Z,97.30
2018-12-10T21:19:33.021Z,97.30
2018-12-10T21:22:02.065Z,97.10
2018-12-10T21:24:31.212Z,97.10
2018-12-10T21:27:00.301Z,97.10
2018-12-10T21:29:29.310Z,97.00
2018-12-10T21:31:58.397Z,97.00
2018-12-10T21:34:27.591Z,96.90
2018-12-10T21:36:56.596Z,96.80
2018-12-10T21:39:25.719Z,96.70
2018-12-10T21:41:54.874Z,96.80
2018-12-10T21:44:23.920Z,96.70
2018-12-10T21:46:53.051Z,96.50
2018-12-10T21:49:22.246Z,96.60
2018-12-10T21:51:51.369Z,96.70
2018-12-10T21:54:20.660Z,96.60
2018-12-10T21:56:49.765Z,96.60
2018-12-10T21:59:19.588Z,96.70
2018-12-10T22:01:48.593Z,96.70
2018-12-10T22:04:17.751Z,96.80
2018-12-10T22:06:47.975Z,96.70
2018-12-10T22:09:16.985Z,96.70
2018-12-10T22:11:46.000Z,96.70
2018-12-10T22:14:15.017Z,96.60
2018-12-10T22:16:44.215Z,96.70
2018-12-10T22:19:13.234Z,96.50
2018-12-10T22:21:42.403Z,96.60
2018-12-10T22:24:11.501Z,96.70
2018-12-10T22:26:40.488Z,96.70
2018-12-10T22:29:09.520Z,96.70
2018-12-10T22:31:38.543Z,97.00
2018-12-10T22:34:08.660Z,96.60
2018-12-10T22:36:37.741Z,96.70
2018-12-10T22:39:07.733Z,96.50
2018-12-10T22:41:36.932Z,96.60
2018-12-10T22:44:05.961Z,96.70
2018-12-10T22:46:35.117Z,96.70
2018-12-10T22:49:04.273Z,96.60
2018-12-10T22:51:33.345Z,96.80
2018-12-10T22:54:02.425Z,96.70
2018-12-10T22:56:31.591Z,96.50
2018-12-10T22:59:00.657Z,96.60
2018-12-10T23:01:29.737Z,96.50
2018-12-10T23:03:58.948Z,96.30
2018-12-10T23:06:27.942Z,96.30
2018-12-10T23:08:56.916Z,96.30
2018-12-10T23:11:26.204Z,96.20
2018-12-10T23:13:55.205Z,96.20
2018-12-10T23:16:25.374Z,96.30
2018-12-10T23:18:54.566Z,96.30
2018-12-10T23:21:23.729Z,96.20
2018-12-10T23:23:52.767Z,96.30
2018-12-10T23:26:21.901Z,96.10
2018-12-10T23:28:51.047Z,96.00
2018-12-10T23:31:20.101Z,96.20
2018-12-10T23:33:49.137Z,96.00
2018-12-10T23:36:18.285Z,95.90
2018-12-10T23:38:47.565Z,95.70
2018-12-10T23:41:16.653Z,95.90
2018-12-10T23:43:45.736Z,96.00
2018-12-10T23:46:14.785Z,95.70
2018-12-10T23:48:43.822Z,95.70
2018-12-10T23:51:12.914Z,95.70
2018-12-10T23:53:41.947Z,95.90
2018-12-10T23:56:10.997Z,95.60
2018-12-10T23:58:40.246Z,95.50
